sensor_id;sensor_type;location;lat;lon;timestamp;P1;durP1;ratioP1;P2;durP2;ratioP2
50932;SDS011;36921;49.006;9.292;2023-03-12T00:02:01;9.63;;;3.97;;
50932;SDS011;36921;49.006;9.292;2023-03-12T00:04:27;12.05;;;3.60;;
50932;SDS011;36921;49.006;9.292;2023-03-12T00:06:52;9.80;;;3.85;;
50932;SDS011;36921;49.006;9.292;2023-03-12T00:09:17;6.63;;;3.33;;
50932;SDS011;36921;49.006;9.292;2023-03-12T00:11:43;11.98;;;3.92;;
50932;SDS011;36921;49.006;9.292;2023-03-12T00:14:08;9.63;;;3.90;;
50932;SDS011;36921;49.006;9.292;2023-03-12T00:16:33;7.45;;;3.38;;
50932;SDS011;36921;49.006;9.292;2023-03-12T00:18:59;8.93;;;4.13;;
50932;SDS011;36921;49.006;9.292;2023-03-12T00:21:24;10.48;;;4.38;;
50932;SDS011;36921;49.006;9.292;2023-03-12T00:23:50;10.88;;;4.40;;
50932;SDS011;36921;49.006;9.292;2023-03-12T00:26:17;8.27;;;4.57;;
50932;SDS011;36921;49.006;9.292;2023-03-12T00:28:43;9.75;;;4.25;;
50932;SDS011;36921;49.006;9.292;2023-03-12T00:31:16;11.43;;;4.80;;
50932;SDS011;36921;49.006;9.292;2023-03-12T00:33:41;18.98;;;5.25;;
50932;SDS011;36921;49.006;9.292;2023-03-12T00:36:07;9.57;;;4.95;;
50932;SDS011;36921;49.006;9.292;2023-03-12T00:38:33;13.82;;;5.28;;
50932;SDS011;36921;49.006;9.292;2023-03-12T00:40:58;8.05;;;4.63;;
50932;SDS011;36921;49.006;9.292;2023-03-12T00:43:23;9.38;;;4.55;;
50932;SDS011;36921;49.006;9.292;2023-03-12T00:45:49;12.77;;;4.30;;
50932;SDS011;36921;49.006;9.292;2023-03-12T00:48:14;7.45;;;3.88;;
50932;SDS011;36921;49.006;9.292;2023-03-12T00:50:39;9.55;;;4.43;;
50932;SDS011;36921;49.006;9.292;2023-03-12T00:53:04;12.45;;;5.63;;
50932;SDS011;36921;49.006;9.292;2023-03-12T00:55:30;10.98;;;6.22;;
50932;SDS011;36921;49.006;9.292;2023-03-12T00:57:55;10.88;;;5.63;;
50932;SDS011;36921;49.006;9.292;2023-03-12T01:00:20;10.98;;;5.28;;
50932;SDS011;36921;49.006;9.292;2023-03-12T01:02:46;9.23;;;4.15;;
50932;SDS011;36921;49.006;9.292;2023-03-12T01:05:12;8.43;;;4.32;;
50932;SDS011;36921;49.006;9.292;2023-03-12T01:07:37;9.55;;;3.75;;
50932;SDS011;36921;49.006;9.292;2023-03-12T01:10:03;10.55;;;4.25;;
50932;SDS011;36921;49.006;9.292;2023-03-12T01:12:29;9.27;;;4.15;;
50932;SDS011;36921;49.006;9.292;2023-03-12T01:14:55;10.80;;;5.10;;
50932;SDS011;36921;49.006;9.292;2023-03-12T01:17:20;18.17;;;5.38;;
50932;SDS011;36921;49.006;9.292;2023-03-12T01:19:45;13.18;;;4.72;;
50932;SDS011;36921;49.006;9.292;2023-03-12T01:22:10;10.93;;;4.38;;
50932;SDS011;36921;49.006;9.292;2023-03-12T01:24:36;9.38;;;4.45;;
50932;SDS011;36921;49.006;9.292;2023-03-12T01:27:01;7.90;;;4.45;;
50932;SDS011;36921;49.006;9.292;2023-03-12T01:29:26;7.75;;;4.38;;
50932;SDS011;36921;49.006;9.292;2023-03-12T01:31:52;8.45;;;4.45;;
50932;SDS011;36921;49.006;9.292;2023-03-12T01:34:17;11.05;;;4.30;;
50932;SDS011;36921;49.006;9.292;2023-03-12T01:36:43;12.88;;;4.32;;
50932;SDS011;36921;49.006;9.292;2023-03-12T01:39:09;13.25;;;3.65;;
50932;SDS011;36921;49.006;9.292;2023-03-12T01:41:35;12.35;;;3.95;;
50932;SDS011;36921;49.006;9.292;2023-03-12T01:44:01;10.10;;;3.78;;
50932;SDS011;36921;49.006;9.292;2023-03-12T01:46:34;10.15;;;4.20;;
50932;SDS011;36921;49.006;9.292;2023-03-12T01:49:04;8.93;;;4.32;;
50932;SDS011;36921;49.006;9.292;2023-03-12T01:51:34;7.57;;;3.55;;
50932;SDS011;36921;49.006;9.292;2023-03-12T01:54:08;9.25;;;4.65;;
50932;SDS011;36921;49.006;9.292;2023-03-12T01:56:37;10.65;;;4.35;;
50932;SDS011;36921;49.006;9.292;2023-03-12T01:59:06;13.10;;;4.65;;
50932;SDS011;36921;49.006;9.292;2023-03-12T02:01:36;15.32;;;4.90;;
50932;SDS011;36921;49.006;9.292;2023-03-12T02:04:03;9.68;;;4.38;;
50932;SDS011;36921;49.006;9.292;2023-03-12T02:06:40;10.68;;;4.20;;
50932;SDS011;36921;49.006;9.292;2023-03-12T02:09:13;19.23;;;4.47;;
50932;SDS011;36921;49.006;9.292;2023-03-12T02:11:38;9.10;;;4.68;;
50932;SDS011;36921;49.006;9.292;2023-03-12T02:14:04;11.40;;;3.97;;
50932;SDS011;36921;49.006;9.292;2023-03-12T02:16:29;12.68;;;5.25;;
50932;SDS011;36921;49.006;9.292;2023-03-12T02:18:55;9.55;;;4.38;;
50932;SDS011;36921;49.006;9.292;2023-03-12T02:21:25;6.68;;;3.08;;
50932;SDS011;36921;49.006;9.292;2023-03-12T02:26:54;12.05;;;3.80;;
50932;SDS011;36921;49.006;9.292;2023-03-12T02:29:21;10.02;;;3.80;;
50932;SDS011;36921;49.006;9.292;2023-03-12T02:31:48;10.52;;;4.07;;
50932;SDS011;36921;49.006;9.292;2023-03-12T02:34:16;10.07;;;4.18;;
50932;SDS011;36921;49.006;9.292;2023-03-12T02:36:41;8.63;;;3.38;;
50932;SDS011;36921;49.006;9.292;2023-03-12T02:39:08;9.32;;;3.80;;
50932;SDS011;36921;49.006;9.292;2023-03-12T02:41:37;11.23;;;3.53;;
50932;SDS011;36921;49.006;9.292;2023-03-12T02:46:36;7.35;;;2.72;;
50932;SDS011;36921;49.006;9.292;2023-03-12T02:49:05;9.48;;;3.58;;
50932;SDS011;36921;49.006;9.292;2023-03-12T02:51:30;9.38;;;3.63;;
50932;SDS011;36921;49.006;9.292;2023-03-12T02:53:56;7.95;;;3.33;;
50932;SDS011;36921;49.006;9.292;2023-03-12T02:56:22;12.30;;;3.72;;
50932;SDS011;36921;49.006;9.292;2023-03-12T02:58:49;10.40;;;4.15;;
50932;SDS011;36921;49.006;9.292;2023-03-12T03:01:15;7.90;;;3.80;;
50932;SDS011;36921;49.006;9.292;2023-03-12T03:03:41;9.45;;;3.80;;
50932;SDS011;36921;49.006;9.292;2023-03-12T03:06:06;7.47;;;4.10;;
50932;SDS011;36921;49.006;9.292;2023-03-12T03:08:32;11.77;;;3.95;;
50932;SDS011;36921;49.006;9.292;2023-03-12T03:10:57;8.15;;;3.72;;
50932;SDS011;36921;49.006;9.292;2023-03-12T03:13:23;11.00;;;4.20;;
50932;SDS011;36921;49.006;9.292;2023-03-12T03:15:48;12.52;;;4.80;;
50932;SDS011;36921;49.006;9.292;2023-03-12T03:18:13;8.65;;;4.53;;
50932;SDS011;36921;49.006;9.292;2023-03-12T03:20:39;12.85;;;4.68;;
50932;SDS011;36921;49.006;9.292;2023-03-12T03:23:04;10.02;;;4.88;;
50932;SDS011;36921;49.006;9.292;2023-03-12T03:25:29;10.68;;;5.15;;
50932;SDS011;36921;49.006;9.292;2023-03-12T03:27:56;8.65;;;4.72;;
50932;SDS011;36921;49.006;9.292;2023-03-12T03:30:22;7.85;;;4.35;;
50932;SDS011;36921;49.006;9.292;2023-03-12T03:32:48;9.57;;;4.13;;
50932;SDS011;36921;49.006;9.292;2023-03-12T03:35:14;13.43;;;4.15;;
50932;SDS011;36921;49.006;9.292;2023-03-12T03:37:39;8.43;;;4.25;;
50932;SDS011;36921;49.006;9.292;2023-03-12T03:40:05;14.63;;;4.20;;
50932;SDS011;36921;49.006;9.292;2023-03-12T03:42:31;10.50;;;4.00;;
50932;SDS011;36921;49.006;9.292;2023-03-12T03:44:56;9.52;;;4.45;;
50932;SDS011;36921;49.006;9.292;2023-03-12T03:47:21;14.52;;;4.10;;
50932;SDS011;36921;49.006;9.292;2023-03-12T03:49:47;7.90;;;3.88;;
50932;SDS011;36921;49.006;9.292;2023-03-12T03:52:12;10.38;;;3.85;;
50932;SDS011;36921;49.006;9.292;2023-03-12T03:54:37;12.07;;;4.00;;
50932;SDS011;36921;49.006;9.292;2023-03-12T03:57:03;9.27;;;4.00;;
50932;SDS011;36921;49.006;9.292;2023-03-12T03:59:28;12.23;;;3.40;;
50932;SDS011;36921;49.006;9.292;2023-03-12T04:01:53;11.20;;;3.33;;
50932;SDS011;36921;49.006;9.292;2023-03-12T04:04:19;9.65;;;3.78;;
50932;SDS011;36921;49.006;9.292;2023-03-12T04:06:45;6.78;;;3.55;;
50932;SDS011;36921;49.006;9.292;2023-03-12T04:09:10;7.75;;;2.90;;
50932;SDS011;36921;49.006;9.292;2023-03-12T04:11:36;7.82;;;3.70;;
50932;SDS011;36921;49.006;9.292;2023-03-12T04:14:02;9.05;;;3.53;;
50932;SDS011;36921;49.006;9.292;2023-03-12T04:16:27;7.50;;;3.20;;
50932;SDS011;36921;49.006;9.292;2023-03-12T04:18:53;5.82;;;2.92;;
50932;SDS011;36921;49.006;9.292;2023-03-12T04:21:18;7.10;;;3.08;;
50932;SDS011;36921;49.006;9.292;2023-03-12T04:23:43;10.80;;;3.17;;
50932;SDS011;36921;49.006;9.292;2023-03-12T04:26:09;8.00;;;3.88;;
50932;SDS011;36921;49.006;9.292;2023-03-12T04:28:35;6.85;;;3.70;;
50932;SDS011;36921;49.006;9.292;2023-03-12T04:31:02;6.43;;;3.22;;
50932;SDS011;36921;49.006;9.292;2023-03-12T04:33:30;4.32;;;2.40;;
50932;SDS011;36921;49.006;9.292;2023-03-12T04:35:58;9.10;;;3.55;;
50932;SDS011;36921;49.006;9.292;2023-03-12T04:38:24;7.47;;;2.97;;
50932;SDS011;36921;49.006;9.292;2023-03-12T04:40:57;11.75;;;3.58;;
50932;SDS011;36921;49.006;9.292;2023-03-12T04:43:23;9.52;;;2.97;;
50932;SDS011;36921;49.006;9.292;2023-03-12T04:45:48;5.72;;;3.08;;
50932;SDS011;36921;49.006;9.292;2023-03-12T04:48:14;7.10;;;3.03;;
50932;SDS011;36921;49.006;9.292;2023-03-12T04:50:39;6.43;;;3.10;;
50932;SDS011;36921;49.006;9.292;2023-03-12T04:53:04;10.55;;;3.25;;
50932;SDS011;36921;49.006;9.292;2023-03-12T04:55:29;7.50;;;3.22;;
50932;SDS011;36921;49.006;9.292;2023-03-12T04:57:55;8.40;;;2.80;;
50932;SDS011;36921;49.006;9.292;2023-03-12T05:00:20;8.50;;;3.03;;
50932;SDS011;36921;49.006;9.292;2023-03-12T05:02:46;5.53;;;3.33;;
50932;SDS011;36921;49.006;9.292;2023-03-12T05:05:11;10.98;;;3.55;;
50932;SDS011;36921;49.006;9.292;2023-03-12T05:07:36;9.07;;;3.63;;
50932;SDS011;36921;49.006;9.292;2023-03-12T05:10:02;6.03;;;3.33;;
50932;SDS011;36921;49.006;9.292;2023-03-12T05:12:28;8.20;;;3.85;;
50932;SDS011;36921;49.006;9.292;2023-03-12T05:14:53;8.95;;;3.45;;
50932;SDS011;36921;49.006;9.292;2023-03-12T05:17:19;10.00;;;3.40;;
50932;SDS011;36921;49.006;9.292;2023-03-12T05:19:45;10.45;;;3.72;;
50932;SDS011;36921;49.006;9.292;2023-03-12T05:22:10;10.90;;;3.55;;
50932;SDS011;36921;49.006;9.292;2023-03-12T05:24:35;7.47;;;3.67;;
50932;SDS011;36921;49.006;9.292;2023-03-12T05:27:00;4.95;;;2.88;;
50932;SDS011;36921;49.006;9.292;2023-03-12T05:29:26;7.05;;;3.25;;
50932;SDS011;36921;49.006;9.292;2023-03-12T05:31:51;8.40;;;3.40;;
50932;SDS011;36921;49.006;9.292;2023-03-12T05:34:16;8.38;;;3.67;;
50932;SDS011;36921;49.006;9.292;2023-03-12T05:36:42;9.48;;;3.50;;
50932;SDS011;36921;49.006;9.292;2023-03-12T05:39:08;7.82;;;3.00;;
50932;SDS011;36921;49.006;9.292;2023-03-12T05:41:33;9.15;;;2.72;;
50932;SDS011;36921;49.006;9.292;2023-03-12T05:43:58;10.63;;;3.25;;
50932;SDS011;36921;49.006;9.292;2023-03-12T05:46:24;5.88;;;3.03;;
50932;SDS011;36921;49.006;9.292;2023-03-12T05:48:51;6.43;;;3.15;;
50932;SDS011;36921;49.006;9.292;2023-03-12T05:51:17;7.70;;;3.78;;
50932;SDS011;36921;49.006;9.292;2023-03-12T05:53:42;8.13;;;3.25;;
50932;SDS011;36921;49.006;9.292;2023-03-12T05:56:10;6.40;;;3.08;;
50932;SDS011;36921;49.006;9.292;2023-03-12T05:58:38;6.18;;;3.60;;
50932;SDS011;36921;49.006;9.292;2023-03-12T06:01:10;6.50;;;3.25;;
50932;SDS011;36921;49.006;9.292;2023-03-12T06:03:40;7.22;;;3.35;;
50932;SDS011;36921;49.006;9.292;2023-03-12T06:06:06;10.95;;;3.35;;
50932;SDS011;36921;49.006;9.292;2023-03-12T06:08:32;9.25;;;3.33;;
50932;SDS011;36921;49.006;9.292;2023-03-12T06:10:57;6.20;;;3.25;;
50932;SDS011;36921;49.006;9.292;2023-03-12T06:13:23;5.90;;;2.97;;
50932;SDS011;36921;49.006;9.292;2023-03-12T06:15:49;7.38;;;2.90;;
50932;SDS011;36921;49.006;9.292;2023-03-12T06:18:14;10.80;;;3.08;;
50932;SDS011;36921;49.006;9.292;2023-03-12T06:20:41;7.60;;;2.60;;
50932;SDS011;36921;49.006;9.292;2023-03-12T06:23:06;9.20;;;3.40;;
50932;SDS011;36921;49.006;9.292;2023-03-12T06:25:31;7.45;;;2.75;;
50932;SDS011;36921;49.006;9.292;2023-03-12T06:27:57;7.93;;;3.03;;
50932;SDS011;36921;49.006;9.292;2023-03-12T06:30:22;6.57;;;2.90;;
50932;SDS011;36921;49.006;9.292;2023-03-12T06:32:47;3.85;;;2.53;;
50932;SDS011;36921;49.006;9.292;2023-03-12T06:35:13;6.35;;;2.67;;
50932;SDS011;36921;49.006;9.292;2023-03-12T06:37:38;8.10;;;3.10;;
50932;SDS011;36921;49.006;9.292;2023-03-12T06:40:04;7.95;;;3.05;;
50932;SDS011;36921;49.006;9.292;2023-03-12T06:42:31;5.03;;;2.67;;
50932;SDS011;36921;49.006;9.292;2023-03-12T06:44:58;8.48;;;2.90;;
50932;SDS011;36921;49.006;9.292;2023-03-12T06:47:24;12.73;;;3.10;;
50932;SDS011;36921;49.006;9.292;2023-03-12T06:49:49;5.00;;;2.83;;
50932;SDS011;36921;49.006;9.292;2023-03-12T06:52:14;7.63;;;2.85;;
50932;SDS011;36921;49.006;9.292;2023-03-12T06:54:41;4.88;;;2.63;;
50932;SDS011;36921;49.006;9.292;2023-03-12T06:57:07;11.40;;;3.75;;
50932;SDS011;36921;49.006;9.292;2023-03-12T06:59:32;6.85;;;3.25;;
50932;SDS011;36921;49.006;9.292;2023-03-12T07:01:57;7.30;;;3.90;;
50932;SDS011;36921;49.006;9.292;2023-03-12T07:04:22;8.35;;;3.85;;
50932;SDS011;36921;49.006;9.292;2023-03-12T07:06:48;7.40;;;4.22;;
50932;SDS011;36921;49.006;9.292;2023-03-12T07:09:18;8.52;;;3.20;;
50932;SDS011;36921;49.006;9.292;2023-03-12T07:11:44;7.95;;;2.88;;
50932;SDS011;36921;49.006;9.292;2023-03-12T07:14:14;8.77;;;3.25;;
50932;SDS011;36921;49.006;9.292;2023-03-12T07:16:39;9.77;;;3.50;;
50932;SDS011;36921;49.006;9.292;2023-03-12T07:19:21;9.07;;;3.63;;
50932;SDS011;36921;49.006;9.292;2023-03-12T07:24:49;10.35;;;3.20;;
50932;SDS011;36921;49.006;9.292;2023-03-12T07:27:15;8.50;;;3.15;;
50932;SDS011;36921;49.006;9.292;2023-03-12T07:29:41;6.80;;;2.75;;
50932;SDS011;36921;49.006;9.292;2023-03-12T07:32:06;4.75;;;2.97;;
50932;SDS011;36921;49.006;9.292;2023-03-12T07:34:31;5.28;;;2.55;;
50932;SDS011;36921;49.006;9.292;2023-03-12T07:36:57;3.90;;;2.08;;
50932;SDS011;36921;49.006;9.292;2023-03-12T07:39:24;16.65;;;3.25;;
50932;SDS011;36921;49.006;9.292;2023-03-12T07:48:34;7.85;;;2.83;;
50932;SDS011;36921;49.006;9.292;2023-03-12T07:50:59;5.88;;;2.53;;
50932;SDS011;36921;49.006;9.292;2023-03-12T07:53:26;7.47;;;2.88;;
50932;SDS011;36921;49.006;9.292;2023-03-12T07:55:51;7.30;;;2.50;;
50932;SDS011;36921;49.006;9.292;2023-03-12T07:58:17;5.47;;;2.60;;
50932;SDS011;36921;49.006;9.292;2023-03-12T08:00:43;7.95;;;3.10;;
50932;SDS011;36921;49.006;9.292;2023-03-12T08:03:09;7.03;;;2.60;;
50932;SDS011;36921;49.006;9.292;2023-03-12T08:05:34;11.43;;;3.78;;
50932;SDS011;36921;49.006;9.292;2023-03-12T08:08:00;9.43;;;3.22;;
50932;SDS011;36921;49.006;9.292;2023-03-12T08:10:26;8.88;;;2.97;;
50932;SDS011;36921;49.006;9.292;2023-03-12T08:12:51;5.53;;;2.60;;
50932;SDS011;36921;49.006;9.292;2023-03-12T08:15:17;6.53;;;2.58;;
50932;SDS011;36921;49.006;9.292;2023-03-12T08:17:42;6.00;;;2.45;;
50932;SDS011;36921;49.006;9.292;2023-03-12T08:20:08;5.40;;;2.45;;
50932;SDS011;36921;49.006;9.292;2023-03-12T08:22:35;5.28;;;2.50;;
50932;SDS011;36921;49.006;9.292;2023-03-12T08:25:01;7.97;;;2.67;;
50932;SDS011;36921;49.006;9.292;2023-03-12T08:27:27;9.60;;;3.45;;
50932;SDS011;36921;49.006;9.292;2023-03-12T08:29:52;5.63;;;2.60;;
50932;SDS011;36921;49.006;9.292;2023-03-12T08:32:18;8.60;;;2.97;;
50932;SDS011;36921;49.006;9.292;2023-03-12T08:34:43;11.05;;;3.28;;
50932;SDS011;36921;49.006;9.292;2023-03-12T08:37:10;6.82;;;3.42;;
50932;SDS011;36921;49.006;9.292;2023-03-12T08:39:35;8.18;;;2.70;;
50932;SDS011;36921;49.006;9.292;2023-03-12T08:42:00;11.85;;;3.40;;
50932;SDS011;36921;49.006;9.292;2023-03-12T08:44:26;8.15;;;3.67;;
50932;SDS011;36921;49.006;9.292;2023-03-12T08:46:52;7.03;;;3.28;;
50932;SDS011;36921;49.006;9.292;2023-03-12T08:49:20;5.80;;;3.20;;
50932;SDS011;36921;49.006;9.292;2023-03-12T08:51:48;8.30;;;3.45;;
50932;SDS011;36921;49.006;9.292;2023-03-12T08:54:15;7.38;;;3.25;;
50932;SDS011;36921;49.006;9.292;2023-03-12T08:56:41;8.55;;;3.58;;
50932;SDS011;36921;49.006;9.292;2023-03-12T08:59:11;5.13;;;2.75;;
50932;SDS011;36921;49.006;9.292;2023-03-12T09:01:37;8.20;;;3.13;;
50932;SDS011;36921;49.006;9.292;2023-03-12T09:04:04;12.13;;;3.60;;
50932;SDS011;36921;49.006;9.292;2023-03-12T09:06:29;6.80;;;2.88;;
50932;SDS011;36921;49.006;9.292;2023-03-12T09:08:55;4.68;;;3.00;;
50932;SDS011;36921;49.006;9.292;2023-03-12T09:13:50;8.23;;;3.20;;
50932;SDS011;36921;49.006;9.292;2023-03-12T09:16:15;6.15;;;3.22;;
50932;SDS011;36921;49.006;9.292;2023-03-12T09:18:40;8.55;;;3.35;;
50932;SDS011;36921;49.006;9.292;2023-03-12T09:21:06;6.20;;;3.00;;
50932;SDS011;36921;49.006;9.292;2023-03-12T09:23:31;5.03;;;3.22;;
50932;SDS011;36921;49.006;9.292;2023-03-12T09:25:57;7.50;;;3.75;;
50932;SDS011;36921;49.006;9.292;2023-03-12T09:28:22;7.13;;;3.72;;
50932;SDS011;36921;49.006;9.292;2023-03-12T09:30:48;10.15;;;3.50;;
50932;SDS011;36921;49.006;9.292;2023-03-12T09:33:14;13.73;;;4.57;;
50932;SDS011;36921;49.006;9.292;2023-03-12T09:35:40;10.35;;;4.22;;
50932;SDS011;36921;49.006;9.292;2023-03-12T09:38:07;7.90;;;4.13;;
50932;SDS011;36921;49.006;9.292;2023-03-12T09:40:33;8.30;;;4.43;;
50932;SDS011;36921;49.006;9.292;2023-03-12T09:43:04;8.52;;;4.32;;
50932;SDS011;36921;49.006;9.292;2023-03-12T09:45:39;10.63;;;4.63;;
50932;SDS011;36921;49.006;9.292;2023-03-12T09:48:12;9.10;;;4.22;;
50932;SDS011;36921;49.006;9.292;2023-03-12T09:50:42;8.23;;;4.38;;
50932;SDS011;36921;49.006;9.292;2023-03-12T09:55:36;9.93;;;4.63;;
50932;SDS011;36921;49.006;9.292;2023-03-12T09:58:08;11.98;;;4.55;;
50932;SDS011;36921;49.006;9.292;2023-03-12T10:06:29;8.98;;;5.35;;
50932;SDS011;36921;49.006;9.292;2023-03-12T10:12:16;13.50;;;6.18;;
50932;SDS011;36921;49.006;9.292;2023-03-12T10:25:52;11.25;;;5.80;;
50932;SDS011;36921;49.006;9.292;2023-03-12T10:28:33;11.75;;;6.82;;
50932;SDS011;36921;49.006;9.292;2023-03-12T10:34:19;11.05;;;5.40;;
50932;SDS011;36921;49.006;9.292;2023-03-12T10:36:57;7.85;;;5.28;;
50932;SDS011;36921;49.006;9.292;2023-03-12T10:39:29;12.30;;;5.43;;
50932;SDS011;36921;49.006;9.292;2023-03-12T10:41:54;15.55;;;7.50;;
50932;SDS011;36921;49.006;9.292;2023-03-12T10:44:24;14.80;;;6.60;;
50932;SDS011;36921;49.006;9.292;2023-03-12T10:46:51;15.20;;;6.90;;
50932;SDS011;36921;49.006;9.292;2023-03-12T10:54:28;11.77;;;5.53;;
50932;SDS011;36921;49.006;9.292;2023-03-12T10:57:04;14.20;;;6.32;;
50932;SDS011;36921;49.006;9.292;2023-03-12T10:59:33;9.02;;;5.43;;
50932;SDS011;36921;49.006;9.292;2023-03-12T11:02:00;9.90;;;5.68;;
50932;SDS011;36921;49.006;9.292;2023-03-12T11:04:30;12.00;;;5.88;;
50932;SDS011;36921;49.006;9.292;2023-03-12T11:09:37;13.73;;;6.72;;
50932;SDS011;36921;49.006;9.292;2023-03-12T11:12:08;10.18;;;5.72;;
50932;SDS011;36921;49.006;9.292;2023-03-12T11:14:48;10.60;;;5.30;;
50932;SDS011;36921;49.006;9.292;2023-03-12T11:17:21;15.63;;;6.63;;
50932;SDS011;36921;49.006;9.292;2023-03-12T11:19:48;11.27;;;5.55;;
50932;SDS011;36921;49.006;9.292;2023-03-12T11:22:14;11.05;;;5.97;;
50932;SDS011;36921;49.006;9.292;2023-03-12T11:24:57;11.55;;;6.15;;
50932;SDS011;36921;49.006;9.292;2023-03-12T11:27:27;11.10;;;6.28;;
50932;SDS011;36921;49.006;9.292;2023-03-12T11:30:13;15.52;;;6.93;;
50932;SDS011;36921;49.006;9.292;2023-03-12T11:32:46;10.38;;;6.32;;
50932;SDS011;36921;49.006;9.292;2023-03-12T11:35:14;12.35;;;5.68;;
50932;SDS011;36921;49.006;9.292;2023-03-12T11:41:15;8.15;;;4.20;;
50932;SDS011;36921;49.006;9.292;2023-03-12T11:46:34;7.07;;;4.00;;
50932;SDS011;36921;49.006;9.292;2023-03-12T11:49:30;8.02;;;4.03;;
50932;SDS011;36921;49.006;9.292;2023-03-12T11:58:08;8.45;;;4.30;;
50932;SDS011;36921;49.006;9.292;2023-03-12T12:09:49;8.38;;;4.88;;
50932;SDS011;36921;49.006;9.292;2023-03-12T12:31:55;10.05;;;5.32;;
50932;SDS011;36921;49.006;9.292;2023-03-12T12:34:25;8.88;;;4.47;;
50932;SDS011;36921;49.006;9.292;2023-03-12T12:42:36;5.82;;;3.63;;
50932;SDS011;36921;49.006;9.292;2023-03-12T12:45:11;10.93;;;3.58;;
50932;SDS011;36921;49.006;9.292;2023-03-12T12:47:48;8.07;;;2.38;;
50932;SDS011;36921;49.006;9.292;2023-03-12T12:50:20;7.40;;;2.78;;
50932;SDS011;36921;49.006;9.292;2023-03-12T12:52:52;4.55;;;2.22;;
50932;SDS011;36921;49.006;9.292;2023-03-12T12:55:30;6.22;;;2.00;;
50932;SDS011;36921;49.006;9.292;2023-03-12T12:58:12;6.72;;;2.15;;
50932;SDS011;36921;49.006;9.292;2023-03-12T13:03:15;5.35;;;2.40;;
50932;SDS011;36921;49.006;9.292;2023-03-12T13:05:55;9.48;;;2.63;;
50932;SDS011;36921;49.006;9.292;2023-03-12T13:13:39;5.85;;;2.30;;
50932;SDS011;36921;49.006;9.292;2023-03-12T13:19:20;4.95;;;2.63;;
50932;SDS011;36921;49.006;9.292;2023-03-12T13:27:21;10.05;;;2.03;;
50932;SDS011;36921;49.006;9.292;2023-03-12T13:45:41;4.60;;;1.75;;
50932;SDS011;36921;49.006;9.292;2023-03-12T13:48:22;7.55;;;2.17;;
50932;SDS011;36921;49.006;9.292;2023-03-12T13:50:58;5.93;;;1.50;;
50932;SDS011;36921;49.006;9.292;2023-03-12T13:53:35;7.05;;;1.23;;
50932;SDS011;36921;49.006;9.292;2023-03-12T14:01:49;6.85;;;1.45;;
50932;SDS011;36921;49.006;9.292;2023-03-12T14:10:02;4.35;;;1.20;;
50932;SDS011;36921;49.006;9.292;2023-03-12T14:13:05;4.30;;;1.08;;
50932;SDS011;36921;49.006;9.292;2023-03-12T14:15:47;9.77;;;1.30;;
50932;SDS011;36921;49.006;9.292;2023-03-12T14:18:29;7.07;;;1.20;;
50932;SDS011;36921;49.006;9.292;2023-03-12T14:20:59;7.18;;;1.45;;
50932;SDS011;36921;49.006;9.292;2023-03-12T14:23:33;5.10;;;1.30;;
50932;SDS011;36921;49.006;9.292;2023-03-12T14:26:02;5.10;;;1.50;;
50932;SDS011;36921;49.006;9.292;2023-03-12T14:28:28;6.63;;;1.55;;
50932;SDS011;36921;49.006;9.292;2023-03-12T14:31:15;9.88;;;1.52;;
50932;SDS011;36921;49.006;9.292;2023-03-12T14:33:50;7.40;;;1.60;;
50932;SDS011;36921;49.006;9.292;2023-03-12T14:36:20;7.93;;;1.65;;
50932;SDS011;36921;49.006;9.292;2023-03-12T14:38:57;8.25;;;1.67;;
50932;SDS011;36921;49.006;9.292;2023-03-12T14:41:33;11.95;;;1.77;;
50932;SDS011;36921;49.006;9.292;2023-03-12T14:44:17;8.18;;;1.52;;
50932;SDS011;36921;49.006;9.292;2023-03-12T14:46:56;6.20;;;1.30;;
50932;SDS011;36921;49.006;9.292;2023-03-12T14:49:25;9.48;;;2.03;;
50932;SDS011;36921;49.006;9.292;2023-03-12T14:51:50;9.93;;;1.75;;
50932;SDS011;36921;49.006;9.292;2023-03-12T14:54:22;10.00;;;1.63;;
50932;SDS011;36921;49.006;9.292;2023-03-12T14:56:49;5.63;;;1.48;;
50932;SDS011;36921;49.006;9.292;2023-03-12T14:59:26;7.68;;;1.88;;
50932;SDS011;36921;49.006;9.292;2023-03-12T15:02:17;8.50;;;1.50;;
50932;SDS011;36921;49.006;9.292;2023-03-12T15:04:42;7.03;;;2.15;;
50932;SDS011;36921;49.006;9.292;2023-03-12T15:07:10;7.05;;;1.45;;
50932;SDS011;36921;49.006;9.292;2023-03-12T15:09:43;8.52;;;1.40;;
50932;SDS011;36921;49.006;9.292;2023-03-12T15:12:18;9.98;;;1.50;;
50932;SDS011;36921;49.006;9.292;2023-03-12T15:14:45;8.00;;;1.27;;
50932;SDS011;36921;49.006;9.292;2023-03-12T15:17:15;6.30;;;1.52;;
50932;SDS011;36921;49.006;9.292;2023-03-12T15:19:42;7.60;;;1.50;;
50932;SDS011;36921;49.006;9.292;2023-03-12T15:22:09;9.13;;;1.40;;
50932;SDS011;36921;49.006;9.292;2023-03-12T15:24:39;12.73;;;1.73;;
50932;SDS011;36921;49.006;9.292;2023-03-12T15:27:17;10.68;;;1.98;;
50932;SDS011;36921;49.006;9.292;2023-03-12T15:29:49;8.55;;;2.35;;
50932;SDS011;36921;49.006;9.292;2023-03-12T15:32:16;7.70;;;1.58;;
50932;SDS011;36921;49.006;9.292;2023-03-12T15:34:44;8.30;;;1.45;;
50932;SDS011;36921;49.006;9.292;2023-03-12T15:40:06;4.68;;;1.42;;
50932;SDS011;36921;49.006;9.292;2023-03-12T15:42:43;8.43;;;1.20;;
50932;SDS011;36921;49.006;9.292;2023-03-12T15:45:18;11.18;;;1.65;;
50932;SDS011;36921;49.006;9.292;2023-03-12T15:48:03;7.78;;;1.25;;
50932;SDS011;36921;49.006;9.292;2023-03-12T15:50:39;10.90;;;1.45;;
50932;SDS011;36921;49.006;9.292;2023-03-12T15:55:38;5.43;;;1.30;;
50932;SDS011;36921;49.006;9.292;2023-03-12T15:58:22;6.72;;;1.17;;
50932;SDS011;36921;49.006;9.292;2023-03-12T16:00:50;8.88;;;1.52;;
50932;SDS011;36921;49.006;9.292;2023-03-12T16:03:20;4.97;;;1.27;;
50932;SDS011;36921;49.006;9.292;2023-03-12T16:05:46;10.93;;;1.17;;
50932;SDS011;36921;49.006;9.292;2023-03-12T16:08:20;10.98;;;2.30;;
50932;SDS011;36921;49.006;9.292;2023-03-12T16:10:50;7.15;;;1.25;;
50932;SDS011;36921;49.006;9.292;2023-03-12T16:13:18;6.03;;;1.50;;
50932;SDS011;36921;49.006;9.292;2023-03-12T16:15:45;7.55;;;1.60;;
50932;SDS011;36921;49.006;9.292;2023-03-12T16:18:14;5.32;;;1.02;;
50932;SDS011;36921;49.006;9.292;2023-03-12T16:20:42;6.50;;;1.00;;
50932;SDS011;36921;49.006;9.292;2023-03-12T16:23:08;8.43;;;1.27;;
50932;SDS011;36921;49.006;9.292;2023-03-12T16:25:33;6.97;;;1.33;;
50932;SDS011;36921;49.006;9.292;2023-03-12T16:28:00;8.73;;;1.35;;
50932;SDS011;36921;49.006;9.292;2023-03-12T16:30:28;3.60;;;1.02;;
50932;SDS011;36921;49.006;9.292;2023-03-12T16:32:56;6.20;;;1.27;;
50932;SDS011;36921;49.006;9.292;2023-03-12T16:35:23;9.85;;;1.70;;
50932;SDS011;36921;49.006;9.292;2023-03-12T16:37:48;7.07;;;1.48;;
50932;SDS011;36921;49.006;9.292;2023-03-12T16:40:14;12.48;;;1.80;;
50932;SDS011;36921;49.006;9.292;2023-03-12T16:42:43;4.45;;;1.55;;
50932;SDS011;36921;49.006;9.292;2023-03-12T16:45:12;8.98;;;1.05;;
50932;SDS011;36921;49.006;9.292;2023-03-12T16:47:39;5.85;;;1.52;;
50932;SDS011;36921;49.006;9.292;2023-03-12T16:50:16;4.93;;;1.02;;
50932;SDS011;36921;49.006;9.292;2023-03-12T16:52:44;9.25;;;1.10;;
50932;SDS011;36921;49.006;9.292;2023-03-12T16:55:15;5.85;;;1.20;;
50932;SDS011;36921;49.006;9.292;2023-03-12T16:57:46;7.45;;;1.33;;
50932;SDS011;36921;49.006;9.292;2023-03-12T17:00:20;5.40;;;1.20;;
50932;SDS011;36921;49.006;9.292;2023-03-12T17:02:47;9.52;;;1.85;;
50932;SDS011;36921;49.006;9.292;2023-03-12T17:05:14;7.70;;;1.10;;
50932;SDS011;36921;49.006;9.292;2023-03-12T17:07:40;11.70;;;1.90;;
50932;SDS011;36921;49.006;9.292;2023-03-12T17:10:05;9.75;;;1.50;;
50932;SDS011;36921;49.006;9.292;2023-03-12T17:12:36;8.27;;;1.20;;
50932;SDS011;36921;49.006;9.292;2023-03-12T17:15:04;7.68;;;1.20;;
50932;SDS011;36921;49.006;9.292;2023-03-12T17:17:35;6.05;;;1.50;;